OMDB Airport Information

Runway Information
Runway 12L Length 13124 ft width 197 ft
Elevation 13 ft Threshold 1312 ft Heading 122
Runway 30R Length 13124 ft Width 197 ft
Elevation 34 ft Threshold 0 ft Heading 302
Runway 12R Length 13124 ft width 151 ft
Elevation 13 ft Threshold 394 ft Heading 121
Runway 30L Length 13124 ft Width 151 ft
Elevation 34 ft Threshold 2953 ft Heading 301
Airport Frequencies
Type ARR Name ARR Frequency 124.9 MHZ
Type ATIS Name ATIS Frequency 131.7 MHZ
Type DEP Name DEP Frequency 124.45 MHZ
Type GND Name GND Frequency 118.35 MHZ
Type TWR Name TWR Frequency 118.75 MHZ
Airport Navaids
Type VOR-DME Name Dubai Frequency 115700 KHZ
Airport Weather Information & NOTAM
ADDS - METARS form results

(2008 UTC 22 July 2018)
 
METAR text: OMDB 222000Z 33005KT 280V060 CAVOK 37/20 Q0995 NOSIG
Conditions at: OMDB (DUBAI INTL AIRPO, AE) observed 2000 UTC 22 July 2018
Temperature: 37.0°C (99°F)
Dewpoint: 20.0°C (68°F) [RH = 37%]
Pressure (altimeter): 29.38 inches Hg (995.0 mb)
Winds: from the NNW (330 degrees) at 6 MPH (5 knots; 2.6 m/s)
Visibility: 6 or more miles (10+ km)
Ceiling: ceiling and visibility are OK
Clouds: unknown
Weather: no significant weather observed at this time